Time;durP1;ratioP1;P1;durP2;ratioP2;P2;SDS_P1;SDS_P2;PMS_P1;PMS_P2;Temp;Humidity;BMP_temperature;BMP_pressure;BME280_temperature;BME280_humidity;BME280_pressure;Samples;Min_cycle;Max_cycle;Signal;HPM_P1;HPM_P2
2022/08/01 00:00:41;;;;;;;10.68;6.28;;;;;;;16.30;65.22;99400.91;5051620;28;20041;-64
2022/08/01 00:03:06;;;;;;;8.30;6.15;;;;;;;16.30;66.88;99404.38;5050624;28;20052;-64
2022/08/01 00:05:32;;;;;;;13.38;6.30;;;;;;;16.23;65.77;99398.50;5070829;28;20064;-63
2022/08/01 00:07:58;;;;;;;12.70;6.53;;;;;;;16.20;67.76;99396.38;5053378;28;20059;-64
2022/08/01 00:10:24;;;;;;;14.18;7.35;;;;;;;16.17;69.54;99396.13;5053199;28;20039;-64
2022/08/01 00:12:50;;;;;;;11.90;6.55;;;;;;;16.16;68.03;99397.22;5071528;28;20040;-64
2022/08/01 00:15:16;;;;;;;12.73;5.28;;;;;;;16.15;65.23;99391.06;5069068;28;20055;-63
2022/08/01 00:17:43;;;;;;;9.07;5.82;;;;;;;16.14;65.86;99392.13;5069587;28;20508;-64
2022/08/01 00:20:11;;;;;;;9.75;5.13;;;;;;;16.15;63.70;99391.06;5071346;28;20044;-65
2022/08/01 00:22:36;;;;;;;9.65;4.93;;;;;;;16.14;63.79;99381.41;5051549;28;20048;-65
2022/08/01 00:25:03;;;;;;;9.65;5.07;;;;;;;16.12;64.92;99380.91;5071258;28;20041;-64
2022/08/01 00:27:29;;;;;;;10.25;5.13;;;;;;;16.06;64.44;99381.97;5071214;28;20559;-63
2022/08/01 00:29:54;;;;;;;7.75;5.15;;;;;;;16.03;64.91;99382.53;5071275;28;20054;-64
2022/08/01 00:32:20;;;;;;;8.38;5.78;;;;;;;15.95;65.92;99378.56;5068944;28;20086;-63
2022/08/01 00:34:45;;;;;;;10.82;6.18;;;;;;;15.88;68.21;99378.03;5032581;28;20060;-63
2022/08/01 00:37:11;;;;;;;11.50;5.97;;;;;;;15.78;67.91;99381.56;5051021;28;20060;-65
2022/08/01 00:39:37;;;;;;;8.98;5.10;;;;;;;15.65;67.89;99369.53;5032881;28;20041;-64
2022/08/01 00:42:07;;;;;;;8.70;5.07;;;;;;;15.63;67.38;99385.03;5060799;28;20043;-64
2022/08/01 00:44:33;;;;;;;6.72;5.03;;;;;;;15.62;66.37;99383.44;5070673;28;20128;-63
2022/08/01 00:46:59;;;;;;;5.93;4.32;;;;;;;15.64;66.08;99388.50;5052732;28;20057;-63
2022/08/01 00:49:24;;;;;;;5.38;4.63;;;;;;;15.62;65.40;99380.75;5070680;28;20112;-64
2022/08/01 00:51:50;;;;;;;7.28;4.78;;;;;;;15.67;65.32;99386.09;5045361;28;20132;-64
2022/08/01 00:54:16;;;;;;;9.02;4.82;;;;;;;15.66;65.26;99384.47;5049300;28;20072;-64
2022/08/01 00:56:42;;;;;;;7.63;4.50;;;;;;;15.62;66.05;99388.78;5050953;28;20051;-63
2022/08/01 00:59:08;;;;;;;7.20;4.93;;;;;;;15.54;66.75;99381.31;5032797;28;20482;-64
2022/08/01 01:01:34;;;;;;;7.55;4.82;;;;;;;15.49;66.92;99385.84;5047568;28;20044;-63
2022/08/01 01:04:00;;;;;;;9.05;5.55;;;;;;;15.45;68.35;99383.72;5069443;28;20075;-63
2022/08/01 01:06:39;;;;;;;9.38;5.70;;;;;;;15.40;69.59;99383.72;5070891;28;20139;-63
2022/08/01 01:09:15;;;;;;;7.03;5.67;;;;;;;15.34;69.66;99376.78;5069639;28;20040;-64
2022/08/01 01:11:45;;;;;;;8.00;5.57;;;;;;;15.30;69.82;99380.28;5038144;28;20060;-64
2022/08/01 01:14:22;;;;;;;9.52;5.38;;;;;;;15.24;69.90;99384.03;5050409;28;20079;-64
2022/08/01 01:16:49;;;;;;;8.55;5.28;;;;;;;15.18;70.51;99377.88;5036059;28;20068;-64
2022/08/01 01:19:21;;;;;;;6.78;5.03;;;;;;;15.13;70.23;99370.66;5058866;28;20063;-63
2022/08/01 01:21:58;;;;;;;12.20;5.53;;;;;;;15.11;70.29;99370.13;5072969;28;20079;-64
2022/08/01 01:24:43;;;;;;;8.85;5.10;;;;;;;15.10;70.26;99375.75;5074068;28;20045;-64
2022/08/01 01:27:22;;;;;;;8.13;5.22;;;;;;;15.07;70.34;99374.41;5056465;28;20048;-64
2022/08/01 01:29:52;;;;;;;8.38;5.40;;;;;;;15.04;71.09;99377.59;5047714;28;20490;-64
2022/08/01 01:32:33;;;;;;;6.95;5.40;;;;;;;14.98;71.18;99366.13;5036324;28;20331;-64
2022/08/01 01:35:05;;;;;;;6.88;5.18;;;;;;;14.94;71.41;99372.25;5020174;28;20074;-64
2022/08/01 01:37:33;;;;;;;5.65;4.45;;;;;;;14.91;70.27;99375.44;5054088;28;20041;-64
2022/08/01 01:39:59;;;;;;;4.93;4.18;;;;;;;15.03;68.44;99372.53;5056320;28;20041;-63
2022/08/01 01:42:25;;;;;;;6.57;4.90;;;;;;;15.12;69.23;99363.72;5074053;28;20140;-64
2022/08/01 01:44:51;;;;;;;5.95;4.72;;;;;;;15.19;68.39;99368.78;5073978;28;20119;-64
2022/08/01 01:47:17;;;;;;;6.53;4.70;;;;;;;15.34;67.46;99365.31;5039108;28;20064;-63
2022/08/01 01:49:45;;;;;;;8.00;5.03;;;;;;;15.45;67.36;99366.91;5021237;28;20391;-63
2022/08/01 01:52:12;;;;;;;7.30;4.68;;;;;;;15.52;66.51;99367.41;5035871;28;20041;-64
2022/08/01 01:54:41;;;;;;;7.70;4.30;;;;;;;15.61;66.20;99367.66;5035374;28;20418;-64
2022/08/01 01:57:08;;;;;;;8.48;4.72;;;;;;;15.66;65.89;99365.78;5041984;28;20032;-63
2022/08/01 01:59:35;;;;;;;6.85;4.88;;;;;;;15.74;67.28;99369.03;5073662;28;20044;-64
2022/08/01 02:02:03;;;;;;;7.50;4.65;;;;;;;15.71;66.11;99370.34;5039414;28;20048;-64
2022/08/01 02:04:30;;;;;;;6.15;4.40;;;;;;;15.68;64.97;99360.22;5035847;28;20068;-63
2022/08/01 02:06:57;;;;;;;6.95;3.95;;;;;;;15.69;64.97;99361.00;5039669;28;20044;-65
2022/08/01 02:09:23;;;;;;;8.50;4.40;;;;;;;15.76;64.79;99364.97;5071901;28;20101;-64
2022/08/01 02:11:50;;;;;;;8.35;3.92;;;;;;;16.02;62.94;99360.34;5073461;28;20398;-63
2022/08/01 02:14:18;;;;;;;4.47;3.97;;;;;;;16.42;61.37;99371.94;5055463;28;20064;-63
2022/08/01 02:16:49;;;;;;;4.50;3.90;;;;;;;16.72;60.19;99370.16;5055458;28;20045;-63
2022/08/01 02:19:17;;;;;;;8.05;4.07;;;;;;;16.96;60.36;99364.91;5073376;28;20055;-63
2022/08/01 02:21:49;;;;;;;7.63;4.07;;;;;;;17.23;59.66;99369.78;5055354;28;20052;-64
2022/08/01 02:24:36;;;;;;;6.97;4.32;;;;;;;17.30;59.33;99362.22;5055215;28;20036;-64
2022/08/01 02:27:07;;;;;;;5.75;4.07;;;;;;;17.11;59.77;99361.31;5052772;28;20067;-64
2022/08/01 02:29:39;;;;;;;8.68;4.10;;;;;;;16.86;60.08;99367.69;5060706;28;20490;-64
2022/08/01 02:32:06;;;;;;;5.68;3.90;;;;;;;16.65;60.57;99365.13;5035320;28;20479;-63
2022/08/01 02:34:33;;;;;;;5.05;3.80;;;;;;;16.48;61.13;99365.47;5038693;28;20045;-64
2022/08/01 02:37:00;;;;;;;6.65;4.07;;;;;;;16.39;61.43;99367.13;5054851;28;20044;-64
2022/08/01 02:39:27;;;;;;;5.88;3.72;;;;;;;16.41;61.83;99374.88;5038184;28;20032;-63
2022/08/01 02:41:58;;;;;;;5.93;4.30;;;;;;;16.35;61.69;99372.25;5054764;28;20055;-63
2022/08/01 02:44:26;;;;;;;8.63;4.43;;;;;;;16.26;62.16;99373.06;5052552;28;20052;-63
2022/08/01 02:47:03;;;;;;;9.68;4.80;;;;;;;16.22;62.70;99364.00;5034821;28;20068;-64
2022/08/01 02:49:35;;;;;;;6.53;4.50;;;;;;;16.20;63.46;99366.94;5034804;28;20052;-63
2022/08/01 02:52:07;;;;;;;6.95;4.60;;;;;;;16.12;63.28;99364.88;5052694;28;20056;-63
2022/08/01 02:54:33;;;;;;;8.85;4.82;;;;;;;16.08;63.41;99369.94;5065432;28;20490;-63
2022/08/01 02:57:00;;;;;;;8.38;4.53;;;;;;;16.34;63.39;99367.16;5054647;28;20040;-63
2022/08/01 02:59:27;;;;;;;7.38;4.55;;;;;;;16.93;61.02;99363.59;5072603;28;20041;-63
2022/08/01 03:01:55;;;;;;;8.00;4.45;;;;;;;17.49;59.13;99367.66;5054554;28;20094;-63
2022/08/01 03:04:22;;;;;;;10.48;4.90;;;;;;;17.91;58.36;99371.53;5061563;28;20045;-63
2022/08/01 03:06:48;;;;;;;10.25;4.88;;;;;;;18.28;56.69;99372.69;5052534;28;20056;-63
2022/08/01 03:09:14;;;;;;;7.25;4.30;;;;;;;18.61;55.43;99377.06;5039165;28;20052;-63
2022/08/01 03:11:44;;;;;;;6.57;3.83;;;;;;;18.88;54.14;99372.13;5044815;28;20048;-63
2022/08/01 03:14:11;;;;;;;7.47;4.10;;;;;;;19.09;53.22;99373.44;5034229;28;20044;-63
2022/08/01 03:16:38;;;;;;;8.85;4.72;;;;;;;19.33;53.23;99375.19;5050967;28;20148;-64
2022/08/01 03:19:05;;;;;;;8.60;4.40;;;;;;;19.49;52.62;99369.22;5051994;28;20044;-64
2022/08/01 03:21:31;;;;;;;13.25;4.90;;;;;;;19.62;52.32;99373.03;5052334;28;20041;-64
2022/08/01 03:23:59;;;;;;;13.32;5.18;;;;;;;19.79;52.34;99372.47;5050509;28;20037;-63
2022/08/01 03:26:29;;;;;;;15.63;5.32;;;;;;;20.02;52.06;99376.03;5034114;28;20051;-64
2022/08/01 03:29:07;;;;;;;13.00;5.25;;;;;;;20.13;51.27;99363.97;5034480;28;20067;-63
2022/08/01 03:31:38;;;;;;;12.80;5.38;;;;;;;20.32;51.28;99368.44;5059232;28;20048;-63
2022/08/01 03:34:04;;;;;;;13.70;4.70;;;;;;;20.44;51.26;99374.09;5071737;28;20688;-63
2022/08/01 03:36:32;;;;;;;17.05;5.32;;;;;;;20.43;50.37;99364.41;5071429;28;20044;-63
2022/08/01 03:39:00;;;;;;;6.63;4.20;;;;;;;20.52;49.96;99367.19;5052854;28;20036;-64
2022/08/01 03:41:28;;;;;;;7.65;4.30;;;;;;;20.58;49.91;99366.78;5048066;28;20131;-64
2022/08/01 03:44:02;;;;;;;15.05;4.82;;;;;;;20.64;50.43;99370.97;5034804;28;20116;-63
2022/08/01 03:47:04;;;;;;;14.27;4.80;;;;;;;20.73;50.26;99371.03;5051340;28;20065;-64
2022/08/01 03:49:32;;;;;;;17.90;6.13;;;;;;;20.84;49.23;99364.31;4973013;28;20152;-64
2022/08/01 03:52:01;;;;;;;9.63;5.28;;;;;;;20.95;49.10;99361.38;5023646;28;20057;-64
2022/08/01 03:54:30;;;;;;;14.70;5.07;;;;;;;21.16;49.36;99367.88;5031484;28;20110;-64
2022/08/01 03:56:57;;;;;;;12.90;4.50;;;;;;;21.30;48.84;99368.59;5013956;28;20049;-63
2022/08/01 03:59:23;;;;;;;7.88;4.35;;;;;;;21.44;48.48;99367.72;5030075;28;20104;-64
2022/08/01 04:01:49;;;;;;;7.32;4.40;;;;;;;21.55;47.67;99369.84;5019494;28;21947;-65
2022/08/01 04:04:15;;;;;;;6.15;4.05;;;;;;;21.61;47.25;99369.72;5052060;28;20037;-64
2022/08/01 04:06:41;;;;;;;6.88;4.25;;;;;;;21.72;47.23;99376.41;5033313;28;20475;-64
2022/08/01 04:09:07;;;;;;;9.13;4.47;;;;;;;21.87;46.54;99367.13;5051042;28;20494;-64
2022/08/01 04:11:33;;;;;;;11.75;5.00;;;;;;;21.97;46.33;99362.22;5034444;28;20062;-65
2022/08/01 04:13:59;;;;;;;9.27;4.03;;;;;;;22.15;45.89;99354.97;5050194;28;20068;-65
2022/08/01 04:16:25;;;;;;;9.38;4.72;;;;;;;22.26;46.19;99354.69;5032863;28;20049;-64
2022/08/01 04:18:51;;;;;;;11.18;4.60;;;;;;;22.33;45.85;99355.81;5051068;28;20040;-64
2022/08/01 04:21:22;;;;;;;10.95;3.88;;;;;;;22.42;45.17;99359.31;5058362;28;20131;-63
2022/08/01 04:23:49;;;;;;;7.80;4.90;;;;;;;22.38;45.01;99358.38;5071175;28;20106;-63
2022/08/01 04:26:15;;;;;;;13.07;4.60;;;;;;;22.61;45.26;99360.91;5031657;28;20049;-63
2022/08/01 04:28:42;;;;;;;8.95;4.43;;;;;;;22.71;43.95;99355.19;5030489;28;20442;-65
2022/08/01 04:31:09;;;;;;;8.27;4.40;;;;;;;22.74;44.14;99361.88;5029815;28;20049;-64
2022/08/01 04:33:36;;;;;;;13.50;5.00;;;;;;;22.79;43.72;99367.88;5013376;28;20037;-64
2022/08/01 04:36:04;;;;;;;12.45;4.63;;;;;;;23.02;44.69;99365.03;5042282;28;20479;-64
2022/08/01 04:38:31;;;;;;;11.70;4.50;;;;;;;23.17;42.67;99359.13;5050708;28;20037;-64
2022/08/01 04:40:57;;;;;;;8.13;4.63;;;;;;;23.23;43.71;99357.03;5034222;28;20044;-64
2022/08/01 04:43:23;;;;;;;9.80;4.43;;;;;;;23.33;43.29;99368.31;5033235;28;20043;-64
2022/08/01 04:45:50;;;;;;;16.20;5.07;;;;;;;23.44;43.55;99359.84;5050809;28;20045;-64
2022/08/01 04:48:17;;;;;;;10.05;4.30;;;;;;;23.46;42.43;99368.44;5051068;28;20095;-64
2022/08/01 04:50:43;;;;;;;10.00;4.22;;;;;;;23.49;42.83;99371.28;5033864;28;20048;-65
2022/08/01 04:53:13;;;;;;;14.00;4.97;;;;;;;23.51;42.45;99362.84;5055811;28;20039;-65
2022/08/01 04:55:39;;;;;;;14.20;5.28;;;;;;;23.67;41.88;99363.88;5042519;28;20420;-64
2022/08/01 04:58:04;;;;;;;11.60;3.70;;;;;;;23.80;40.89;99362.91;5075055;28;20041;-63
2022/08/01 05:00:30;;;;;;;11.07;4.25;;;;;;;23.84;40.45;99367.69;5053951;28;20175;-64
2022/08/01 05:02:56;;;;;;;7.05;3.08;;;;;;;23.75;40.05;99367.72;5054862;28;20049;-65
2022/08/01 05:05:21;;;;;;;6.22;3.25;;;;;;;23.74;40.75;99366.94;5054957;28;20494;-66
2022/08/01 05:07:47;;;;;;;5.60;3.20;;;;;;;23.76;38.17;99361.97;5054340;28;20041;-62
2022/08/01 05:10:13;;;;;;;8.93;3.40;;;;;;;23.74;38.87;99364.22;5054239;28;20037;-65
2022/08/01 05:12:38;;;;;;;5.35;3.03;;;;;;;23.72;38.72;99365.66;5036546;28;20103;-65
2022/08/01 05:15:06;;;;;;;4.97;3.50;;;;;;;23.68;39.03;99365.50;5062518;28;20067;-66
2022/08/01 05:17:31;;;;;;;6.60;3.35;;;;;;;23.59;39.78;99367.44;5071352;28;20036;-64
2022/08/01 05:19:57;;;;;;;5.82;3.13;;;;;;;23.63;38.68;99362.97;5060697;28;20033;-64
2022/08/01 05:22:25;;;;;;;6.68;3.60;;;;;;;23.65;38.54;99373.44;5056378;28;20044;-65
2022/08/01 05:24:51;;;;;;;10.07;3.35;;;;;;;23.64;38.99;99358.34;5040719;28;20036;-64
2022/08/01 05:27:16;;;;;;;6.38;3.67;;;;;;;23.57;38.42;99353.44;5054048;28;20082;-65
2022/08/01 05:29:42;;;;;;;4.90;3.10;;;;;;;23.47;39.17;99361.91;5053492;28;20273;-65
2022/08/01 05:32:09;;;;;;;5.70;2.60;;;;;;;23.32;38.81;99364.03;5054013;28;20513;-65
2022/08/01 05:34:35;;;;;;;3.90;2.55;;;;;;;23.28;39.55;99363.06;5054024;28;20521;-65
2022/08/01 05:37:01;;;;;;;6.85;2.92;;;;;;;23.18;38.61;99363.44;5054224;28;20053;-65
2022/08/01 05:39:26;;;;;;;4.20;2.72;;;;;;;23.09;39.07;99357.25;5053953;28;20041;-65
2022/08/01 05:41:52;;;;;;;3.42;2.10;;;;;;;23.01;38.55;99358.06;5054077;28;20063;-65
2022/08/01 05:44:18;;;;;;;5.03;2.58;;;;;;;22.99;38.80;99352.97;5054052;28;20417;-66
2022/08/01 05:46:44;;;;;;;6.05;2.75;;;;;;;22.99;39.37;99352.16;5053295;28;20061;-65
2022/08/01 05:49:09;;;;;;;5.15;2.55;;;;;;;22.94;38.99;99350.38;5053923;28;20036;-64
2022/08/01 05:51:35;;;;;;;9.07;3.40;;;;;;;22.91;39.25;99356.44;5039671;28;20066;-65
2022/08/01 05:54:01;;;;;;;6.47;2.55;;;;;;;22.86;37.91;99351.22;5073267;28;20044;-66
2022/08/01 05:56:26;;;;;;;8.25;2.50;;;;;;;22.85;39.13;99361.22;5055221;28;20131;-64
2022/08/01 05:58:52;;;;;;;4.72;2.50;;;;;;;22.86;38.65;99352.00;5072213;28;20102;-64
2022/08/01 06:01:18;;;;;;;3.30;2.35;;;;;;;22.80;38.81;99349.78;5048404;28;20053;-64
2022/08/01 06:03:44;;;;;;;4.97;2.13;;;;;;;22.71;38.97;99346.28;5033520;28;20061;-63
2022/08/01 06:06:10;;;;;;;6.80;2.55;;;;;;;22.70;38.75;99350.09;5037280;28;20131;-63
2022/08/01 06:08:35;;;;;;;6.53;2.28;;;;;;;22.63;39.08;99351.38;5035766;28;20545;-64
2022/08/01 06:11:01;;;;;;;3.35;2.35;;;;;;;22.69;39.58;99349.31;5034124;28;20048;-66
2022/08/01 06:13:27;;;;;;;6.43;2.20;;;;;;;22.75;39.11;99345.31;5072038;28;20169;-65
2022/08/01 06:15:53;;;;;;;6.88;3.00;;;;;;;22.77;39.75;99348.50;5067230;28;20075;-66
2022/08/01 06:18:19;;;;;;;6.15;2.90;;;;;;;22.79;39.42;99359.78;5062048;28;20505;-65
2022/08/01 06:20:45;;;;;;;6.25;2.42;;;;;;;22.82;39.04;99356.44;5053787;28;20040;-65
2022/08/01 06:23:10;;;;;;;4.85;2.83;;;;;;;22.81;39.45;99360.25;5062665;28;20049;-65
2022/08/01 06:25:36;;;;;;;4.47;3.00;;;;;;;22.82;39.82;99361.84;5069483;28;20085;-66
2022/08/01 06:28:02;;;;;;;4.45;2.35;;;;;;;22.72;39.59;99366.78;5069116;28;20556;-64
2022/08/01 06:30:28;;;;;;;4.47;2.70;;;;;;;22.62;39.54;99367.91;5053724;28;20095;-65
2022/08/01 06:32:58;;;;;;;6.18;3.00;;;;;;;22.58;40.51;99362.34;5052081;28;20041;-67
2022/08/01 06:35:24;;;;;;;5.68;2.83;;;;;;;22.58;40.37;99369.66;5041303;28;20043;-65
2022/08/01 06:37:49;;;;;;;7.00;2.90;;;;;;;22.52;39.60;99358.19;5051596;28;20044;-64
2022/08/01 06:40:15;;;;;;;8.20;3.35;;;;;;;22.50;40.18;99357.75;5052414;28;20037;-64
2022/08/01 06:42:41;;;;;;;5.35;2.70;;;;;;;22.58;40.52;99356.94;5051381;28;20048;-65
2022/08/01 06:45:09;;;;;;;8.20;2.92;;;;;;;22.78;40.39;99363.59;5050379;28;20049;-65
2022/08/01 06:47:35;;;;;;;3.63;2.63;;;;;;;22.97;39.63;99367.91;5033543;28;20056;-63
2022/08/01 06:50:01;;;;;;;4.65;2.60;;;;;;;23.08;39.63;99359.13;5051290;28;20129;-65
2022/08/01 06:52:27;;;;;;;5.43;2.95;;;;;;;23.15;39.25;99363.25;5053041;28;20167;-64
2022/08/01 06:54:53;;;;;;;6.30;2.97;;;;;;;23.14;39.27;99365.16;5052168;28;20056;-64
2022/08/01 06:57:19;;;;;;;12.05;3.17;;;;;;;23.17;40.11;99371.84;5020418;28;20040;-67
2022/08/01 06:59:44;;;;;;;9.52;3.28;;;;;;;23.19;38.98;99364.22;5051647;28;20551;-61
2022/08/01 07:02:10;;;;;;;9.93;3.08;;;;;;;23.27;39.06;99366.91;5051747;28;20049;-62
2022/08/01 07:04:36;;;;;;;7.47;3.00;;;;;;;23.40;37.94;99369.72;5052823;28;20040;-63
2022/08/01 07:07:02;;;;;;;5.30;3.13;;;;;;;23.40;38.52;99372.44;5033650;28;20044;-63
2022/08/01 07:09:27;;;;;;;5.78;2.80;;;;;;;23.41;38.19;99374.00;5034161;28;20033;-63
2022/08/01 07:11:54;;;;;;;10.70;3.45;;;;;;;23.44;37.75;99367.97;5033892;28;20182;-63
2022/08/01 07:14:20;;;;;;;8.20;3.25;;;;;;;23.53;37.60;99374.13;5031941;28;20437;-64
2022/08/01 07:16:47;;;;;;;7.95;3.92;;;;;;;23.61;37.88;99370.59;5058057;28;20055;-63
2022/08/01 07:19:13;;;;;;;5.68;2.80;;;;;;;23.66;37.45;99366.94;5068482;28;20047;-65
2022/08/01 07:21:39;;;;;;;9.40;3.97;;;;;;;23.69;38.14;99371.69;5071077;28;20036;-62
2022/08/01 07:24:12;;;;;;;7.10;2.80;;;;;;;23.74;37.36;99369.63;5020787;28;20048;-67
2022/08/01 07:26:39;;;;;;;5.95;3.33;;;;;;;23.71;37.09;99362.16;5070434;28;20048;-66
2022/08/01 07:29:05;;;;;;;9.23;3.28;;;;;;;23.58;37.61;99360.44;5069933;28;20040;-65
2022/08/01 07:31:30;;;;;;;5.70;3.47;;;;;;;23.65;37.86;99366.16;5071292;28;20044;-66
2022/08/01 07:33:56;;;;;;;7.57;3.33;;;;;;;23.77;37.85;99360.06;5053786;28;20525;-65
2022/08/01 07:36:22;;;;;;;7.75;3.30;;;;;;;23.87;38.62;99364.31;5071917;28;20204;-65
2022/08/01 07:38:47;;;;;;;9.27;3.45;;;;;;;23.87;38.13;99356.19;5068478;28;20545;-66
2022/08/01 07:41:13;;;;;;;4.72;3.17;;;;;;;23.88;37.04;99361.28;5071161;28;20064;-66
2022/08/01 07:43:39;;;;;;;5.88;3.42;;;;;;;23.85;36.26;99353.03;5070712;28;20090;-67
2022/08/01 07:46:05;;;;;;;8.38;3.70;;;;;;;23.84;36.14;99351.44;5070934;28;20052;-68
2022/08/01 07:48:31;;;;;;;7.07;3.40;;;;;;;23.92;36.65;99361.44;5070529;28;20064;-65
2022/08/01 07:50:57;;;;;;;9.60;3.83;;;;;;;23.92;38.38;99356.03;5069177;28;20143;-64
2022/08/01 07:53:23;;;;;;;8.70;3.53;;;;;;;23.99;37.15;99359.00;5071315;28;20044;-65
2022/08/01 07:55:49;;;;;;;6.97;3.30;;;;;;;24.08;37.02;99359.72;5071166;28;20135;-65
2022/08/01 07:58:15;;;;;;;8.38;3.63;;;;;;;24.12;36.16;99349.03;5071334;28;20127;-65
2022/08/01 08:00:41;;;;;;;10.95;3.90;;;;;;;24.16;37.11;99353.47;5053583;28;20032;-65
2022/08/01 08:03:07;;;;;;;6.25;3.50;;;;;;;24.21;35.88;99358.72;5070037;28;20052;-65
2022/08/01 08:05:34;;;;;;;7.63;3.15;;;;;;;24.07;36.58;99363.56;5071007;28;20431;-64
2022/08/01 08:08:02;;;;;;;9.30;3.38;;;;;;;23.97;36.12;99363.94;5071678;28;20482;-64
2022/08/01 08:10:28;;;;;;;8.32;3.10;;;;;;;23.88;35.91;99355.84;5070877;28;20460;-64
2022/08/01 08:12:53;;;;;;;8.70;3.33;;;;;;;23.86;36.96;99351.91;5069647;28;20078;-63
2022/08/01 08:15:19;;;;;;;13.00;3.90;;;;;;;23.93;36.79;99357.59;5070332;28;20059;-63
2022/08/01 08:17:45;;;;;;;8.80;3.50;;;;;;;24.06;36.88;99353.06;5052909;28;20048;-63
2022/08/01 08:20:10;;;;;;;10.45;3.20;;;;;;;24.20;36.51;99359.81;5053314;28;20032;-63
2022/08/01 08:22:36;;;;;;;9.70;3.63;;;;;;;24.30;35.77;99344.31;5070030;28;20084;-61
2022/08/01 08:25:02;;;;;;;9.10;3.47;;;;;;;24.43;35.85;99340.56;5070143;28;20052;-62
2022/08/01 08:27:30;;;;;;;5.35;2.63;;;;;;;24.61;34.92;99344.72;5051653;28;20045;-64
2022/08/01 08:29:56;;;;;;;6.57;3.20;;;;;;;24.77;34.99;99344.13;5050543;28;20048;-63
2022/08/01 08:32:22;;;;;;;5.55;2.55;;;;;;;24.92;34.18;99352.44;5050905;28;20037;-63
2022/08/01 08:34:47;;;;;;;3.80;2.80;;;;;;;24.98;34.13;99346.81;5050746;28;20041;-64
2022/08/01 08:37:13;;;;;;;4.70;3.00;;;;;;;25.04;34.19;99343.53;5050771;28;20052;-63
2022/08/01 08:39:39;;;;;;;8.82;2.92;;;;;;;25.18;33.62;99345.16;5050487;28;20037;-62
2022/08/01 08:42:09;;;;;;;9.07;2.90;;;;;;;25.31;33.63;99341.38;5050344;28;20539;-62
2022/08/01 08:44:35;;;;;;;6.65;2.92;;;;;;;25.32;33.77;99342.94;5032819;28;20041;-63
2022/08/01 08:47:05;;;;;;;7.65;3.10;;;;;;;25.23;33.93;99340.31;5049010;28;20480;-62
2022/08/01 08:49:32;;;;;;;9.38;3.50;;;;;;;25.17;33.55;99332.75;5049978;28;20584;-64
2022/08/01 08:52:00;;;;;;;6.38;2.95;;;;;;;25.14;34.42;99340.41;5050321;28;20041;-62
2022/08/01 08:54:26;;;;;;;6.72;3.20;;;;;;;25.27;34.54;99329.59;5049439;28;20513;-62
2022/08/01 08:56:54;;;;;;;10.50;2.85;;;;;;;25.35;33.68;99342.25;5050313;28;20049;-62
2022/08/01 08:59:20;;;;;;;9.55;3.30;;;;;;;25.52;33.58;99344.00;5032820;28;20053;-62
2022/08/01 09:01:46;;;;;;;5.28;3.53;;;;;;;25.56;33.35;99331.31;5050520;28;20041;-62
2022/08/01 09:04:12;;;;;;;5.05;2.88;;;;;;;25.69;33.38;99337.56;5031419;28;20068;-63
2022/08/01 09:06:38;;;;;;;5.35;2.70;;;;;;;25.86;33.61;99331.94;5050160;28;20192;-63
2022/08/01 09:09:05;;;;;;;7.28;3.35;;;;;;;25.96;32.83;99328.72;5050480;28;20040;-63
2022/08/01 09:11:31;;;;;;;4.75;2.90;;;;;;;26.18;32.01;99334.84;5049690;28;20084;-62
2022/08/01 09:14:22;;;;;;;5.78;3.35;;;;;;;26.19;31.29;99336.41;5050111;28;20041;-62
2022/08/01 09:16:59;;;;;;;6.93;3.22;;;;;;;26.29;31.12;99336.69;5033367;28;20041;-63
2022/08/01 09:19:25;;;;;;;8.20;3.22;;;;;;;26.35;31.19;99331.81;5050172;28;20106;-62
2022/08/01 09:22:03;;;;;;;5.50;3.22;;;;;;;26.24;30.70;99331.53;5049992;28;20045;-63
2022/08/01 09:24:30;;;;;;;6.22;3.33;;;;;;;26.10;30.88;99324.88;5049690;28;20389;-63
2022/08/01 09:26:56;;;;;;;5.45;3.10;;;;;;;25.99;31.38;99321.84;5050068;28;20041;-62
2022/08/01 09:29:26;;;;;;;5.28;2.85;;;;;;;25.92;31.49;99321.63;5032174;28;20067;-61
2022/08/01 09:31:51;;;;;;;4.38;3.08;;;;;;;25.88;31.71;99326.94;5032596;28;20037;-63
2022/08/01 09:34:25;;;;;;;6.45;3.42;;;;;;;25.79;31.73;99323.50;5059903;28;20095;-62
2022/08/01 09:36:56;;;;;;;9.23;3.47;;;;;;;25.64;32.36;99321.50;5051495;28;20115;-63
2022/08/01 09:39:24;;;;;;;10.95;3.45;;;;;;;25.71;32.24;99319.00;5050699;28;20041;-62
2022/08/01 09:41:50;;;;;;;5.00;2.95;;;;;;;25.82;31.92;99322.88;5052642;28;20095;-62
2022/08/01 09:44:17;;;;;;;6.50;3.28;;;;;;;26.16;31.81;99326.22;5051653;28;20129;-61
2022/08/01 09:46:51;;;;;;;7.63;3.40;;;;;;;26.35;31.36;99320.94;5018157;28;20115;-62
2022/08/01 09:49:31;;;;;;;4.30;3.10;;;;;;;26.42;31.38;99315.75;5035567;28;20032;-61
2022/08/01 09:51:57;;;;;;;;;;;;;;;26.42;31.71;99320.38;5054162;28;20052;-62
2022/08/01 09:54:30;;;;;;;7.22;4.93;;;;;;;26.50;31.56;99317.56;5065841;28;19924;-62
2022/08/01 09:57:10;;;;;;;6.72;3.90;;;;;;;26.41;31.55;99310.63;5073593;28;20055;-63
2022/08/01 09:59:38;;;;;;;4.63;3.05;;;;;;;26.40;30.65;99318.00;5033945;28;20164;-62
2022/08/01 10:02:04;;;;;;;3.97;3.47;;;;;;;26.26;31.67;99323.00;5033574;28;20045;-64
2022/08/01 10:04:29;;;;;;;4.80;3.58;;;;;;;26.27;31.31;99308.31;5043259;28;20408;-62
2022/08/01 10:07:05;;;;;;;5.88;3.40;;;;;;;26.34;31.77;99307.72;5053766;28;20045;-63
2022/08/01 10:09:34;;;;;;;8.90;3.50;;;;;;;26.49;33.37;99306.97;5051878;28;20037;-62
2022/08/01 10:12:00;;;;;;;4.22;2.95;;;;;;;26.58;31.60;99296.78;5053358;28;20049;-63
2022/08/01 10:14:27;;;;;;;11.43;3.85;;;;;;;26.54;31.55;99301.34;5071043;28;20644;-62
2022/08/01 10:16:54;;;;;;;7.88;3.30;;;;;;;26.45;31.53;99308.81;5071979;28;20087;-63
2022/08/01 10:19:23;;;;;;;8.27;3.45;;;;;;;26.54;31.64;99304.06;5037912;28;20493;-64
2022/08/01 10:21:52;;;;;;;6.70;3.60;;;;;;;26.50;30.82;99306.69;5040862;28;20417;-63
2022/08/01 10:24:22;;;;;;;7.55;3.90;;;;;;;26.48;31.23;99299.97;5053231;28;20522;-63
2022/08/01 10:26:51;;;;;;;6.57;3.60;;;;;;;26.48;31.18;99300.75;5052854;28;20044;-63
2022/08/01 10:29:20;;;;;;;7.82;3.70;;;;;;;26.70;33.55;99306.81;5035794;28;20502;-63
2022/08/01 10:31:46;;;;;;;6.82;3.40;;;;;;;26.86;30.28;99304.16;5053116;28;20106;-63
2022/08/01 10:34:17;;;;;;;4.97;3.30;;;;;;;26.74;30.79;99302.28;5053017;28;20112;-63
2022/08/01 10:36:44;;;;;;;6.70;3.63;;;;;;;26.49;30.81;99302.38;5061493;28;20224;-63
2022/08/01 10:39:11;;;;;;;7.88;4.18;;;;;;;26.47;31.72;99298.38;5054659;28;20044;-62
2022/08/01 10:41:38;;;;;;;6.90;3.85;;;;;;;26.52;31.31;99302.81;5052999;28;20140;-63
2022/08/01 10:44:06;;;;;;;7.60;4.20;;;;;;;26.72;31.50;99304.53;5070626;28;20032;-63
2022/08/01 10:46:34;;;;;;;4.40;3.50;;;;;;;26.73;31.03;99301.47;5054319;28;20060;-62
2022/08/01 10:49:08;;;;;;;9.23;4.28;;;;;;;26.65;32.51;99302.44;5054417;28;20052;-63
2022/08/01 10:51:37;;;;;;;12.02;4.18;;;;;;;26.66;31.11;99301.28;5037284;28;20113;-62
2022/08/01 10:54:05;;;;;;;6.97;3.70;;;;;;;26.74;31.41;99302.28;5053808;28;20119;-62
2022/08/01 10:56:49;;;;;;;6.63;3.80;;;;;;;26.79;30.88;99298.50;5072625;28;20056;-63
2022/08/01 10:59:24;;;;;;;6.20;3.70;;;;;;;26.88;31.57;99299.91;5061469;28;20387;-62
2022/08/01 11:02:01;;;;;;;7.20;4.15;;;;;;;26.93;30.86;99296.94;5051679;28;20044;-63
2022/08/01 11:04:34;;;;;;;6.63;3.78;;;;;;;26.82;31.37;99297.81;5060610;28;20118;-62
2022/08/01 11:07:08;;;;;;;5.20;3.83;;;;;;;26.79;31.22;99293.84;5066993;28;20044;-63
2022/08/01 11:09:47;;;;;;;7.25;4.07;;;;;;;26.69;31.58;99286.22;5041140;28;20044;-62
2022/08/01 11:12:17;;;;;;;5.40;3.80;;;;;;;26.64;31.51;99281.00;5051973;28;20053;-63
2022/08/01 11:14:57;;;;;;;6.30;4.07;;;;;;;26.88;30.76;99286.31;5050159;28;20602;-65
2022/08/01 11:17:50;;;;;;;4.78;4.28;;;;;;;26.92;30.92;99283.72;5055208;28;20068;-63
2022/08/01 11:20:30;;;;;;;9.65;3.80;;;;;;;26.85;30.02;99284.28;5046169;28;20498;-62
2022/08/01 11:22:59;;;;;;;14.98;4.20;;;;;;;26.83;30.76;99278.44;5053624;28;20457;-63
2022/08/01 11:25:37;;;;;;;8.00;3.70;;;;;;;26.94;31.40;99275.97;5053545;28;20036;-63
2022/08/01 11:28:17;;;;;;;9.80;4.47;;;;;;;26.91;30.23;99273.94;5031154;28;20061;-63
2022/08/01 11:30:48;;;;;;;6.50;4.10;;;;;;;26.83;30.17;99274.94;5030946;28;20488;-63
2022/08/01 11:33:16;;;;;;;10.55;4.70;;;;;;;26.83;30.25;99272.22;5053761;28;20043;-63
2022/08/01 11:36:09;;;;;;;6.78;3.92;;;;;;;26.67;31.07;99272.94;5070598;28;20055;-63